sensor_id;sensor_type;location;lat;lon;timestamp;pressure;altitude;pressure_sealevel;temperature
41593;BMP180;28026;48.562;14.440;2022-10-04T00:02:15;94357.00;;;16.70
41593;BMP180;28026;48.562;14.440;2022-10-04T00:05:15;94345.00;;;16.70
41593;BMP180;28026;48.562;14.440;2022-10-04T00:07:58;94349.00;;;16.70
41593;BMP180;28026;48.562;14.440;2022-10-04T00:10:44;94351.00;;;16.70
41593;BMP180;28026;48.562;14.440;2022-10-04T00:13:24;94346.00;;;16.70
41593;BMP180;28026;48.562;14.440;2022-10-04T00:15:58;94333.00;;;16.70
41593;BMP180;28026;48.562;14.440;2022-10-04T00:18:43;94347.00;;;16.70
41593;BMP180;28026;48.562;14.440;2022-10-04T00:21:15;94350.00;;;16.70
41593;BMP180;28026;48.562;14.440;2022-10-04T00:23:47;94348.00;;;16.70
41593;BMP180;28026;48.562;14.440;2022-10-04T00:34:52;94361.00;;;16.70
41593;BMP180;28026;48.562;14.440;2022-10-04T00:37:25;94355.00;;;16.70
41593;BMP180;28026;48.562;14.440;2022-10-04T00:40:09;94357.00;;;16.70
41593;BMP180;28026;48.562;14.440;2022-10-04T00:42:57;94355.00;;;16.70
41593;BMP180;28026;48.562;14.440;2022-10-04T00:45:41;94365.00;;;16.70
41593;BMP180;28026;48.562;14.440;2022-10-04T00:54:31;94355.00;;;16.70
41593;BMP180;28026;48.562;14.440;2022-10-04T00:57:15;94345.00;;;16.70
41593;BMP180;28026;48.562;14.440;2022-10-04T00:59:57;94350.00;;;16.70
41593;BMP180;28026;48.562;14.440;2022-10-04T01:02:44;94351.00;;;16.70
41593;BMP180;28026;48.562;14.440;2022-10-04T01:05:29;94343.00;;;16.70
41593;BMP180;28026;48.562;14.440;2022-10-04T01:08:12;94348.00;;;16.70
41593;BMP180;28026;48.562;14.440;2022-10-04T01:10:55;94340.00;;;16.70
41593;BMP180;28026;48.562;14.440;2022-10-04T01:13:43;94340.00;;;16.70
41593;BMP180;28026;48.562;14.440;2022-10-04T01:16:25;94338.00;;;16.70
41593;BMP180;28026;48.562;14.440;2022-10-04T01:22:31;94331.00;;;16.70
41593;BMP180;28026;48.562;14.440;2022-10-04T01:25:05;94319.00;;;16.70
41593;BMP180;28026;48.562;14.440;2022-10-04T01:27:42;94318.00;;;16.60
41593;BMP180;28026;48.562;14.440;2022-10-04T01:30:16;94331.00;;;16.60
41593;BMP180;28026;48.562;14.440;2022-10-04T01:32:47;94331.00;;;16.50
41593;BMP180;28026;48.562;14.440;2022-10-04T01:35:18;94334.00;;;16.60
41593;BMP180;28026;48.562;14.440;2022-10-04T01:37:50;94331.00;;;16.50
41593;BMP180;28026;48.562;14.440;2022-10-04T01:40:21;94330.00;;;16.50
41593;BMP180;28026;48.562;14.440;2022-10-04T01:43:03;94334.00;;;16.50
41593;BMP180;28026;48.562;14.440;2022-10-04T01:45:48;94331.00;;;16.50
41593;BMP180;28026;48.562;14.440;2022-10-04T01:48:25;94326.00;;;16.50
41593;BMP180;28026;48.562;14.440;2022-10-04T01:51:15;94325.00;;;16.50
41593;BMP180;28026;48.562;14.440;2022-10-04T01:56:51;94322.00;;;16.50
41593;BMP180;28026;48.562;14.440;2022-10-04T02:00:00;94317.00;;;16.40
41593;BMP180;28026;48.562;14.440;2022-10-04T02:05:39;94319.00;;;16.40
41593;BMP180;28026;48.562;14.440;2022-10-04T02:08:16;94312.00;;;16.40
41593;BMP180;28026;48.562;14.440;2022-10-04T02:10:56;94309.00;;;16.40
41593;BMP180;28026;48.562;14.440;2022-10-04T02:13:37;94311.00;;;16.40
41593;BMP180;28026;48.562;14.440;2022-10-04T02:16:11;94310.00;;;16.40
41593;BMP180;28026;48.562;14.440;2022-10-04T02:18:43;94313.00;;;16.40
41593;BMP180;28026;48.562;14.440;2022-10-04T02:21:16;94306.00;;;16.40
41593;BMP180;28026;48.562;14.440;2022-10-04T02:23:51;94302.00;;;16.40
41593;BMP180;28026;48.562;14.440;2022-10-04T02:26:23;94301.00;;;16.40
41593;BMP180;28026;48.562;14.440;2022-10-04T02:28:54;94300.00;;;16.40
41593;BMP180;28026;48.562;14.440;2022-10-04T02:31:26;94298.00;;;16.40
41593;BMP180;28026;48.562;14.440;2022-10-04T02:34:18;94294.00;;;16.40
41593;BMP180;28026;48.562;14.440;2022-10-04T02:36:49;94280.00;;;16.40
41593;BMP180;28026;48.562;14.440;2022-10-04T02:39:29;94287.00;;;16.40
41593;BMP180;28026;48.562;14.440;2022-10-04T02:42:20;94293.00;;;16.30
41593;BMP180;28026;48.562;14.440;2022-10-04T02:45:27;94293.00;;;16.20
41593;BMP180;28026;48.562;14.440;2022-10-04T02:57:20;94295.00;;;16.20
41593;BMP180;28026;48.562;14.440;2022-10-04T03:00:23;94297.00;;;16.20
41593;BMP180;28026;48.562;14.440;2022-10-04T03:03:29;94292.00;;;16.20
41593;BMP180;28026;48.562;14.440;2022-10-04T03:06:17;94293.00;;;16.20
41593;BMP180;28026;48.562;14.440;2022-10-04T03:08:55;94276.00;;;16.20
41593;BMP180;28026;48.562;14.440;2022-10-04T03:11:34;94282.00;;;16.20
41593;BMP180;28026;48.562;14.440;2022-10-04T03:14:23;94290.00;;;16.20
41593;BMP180;28026;48.562;14.440;2022-10-04T03:17:00;94289.00;;;16.30
41593;BMP180;28026;48.562;14.440;2022-10-04T03:19:34;94286.00;;;16.30
41593;BMP180;28026;48.562;14.440;2022-10-04T03:22:10;94289.00;;;16.20
41593;BMP180;28026;48.562;14.440;2022-10-04T03:24:49;94288.00;;;16.20
41593;BMP180;28026;48.562;14.440;2022-10-04T03:27:35;94284.00;;;16.00
41593;BMP180;28026;48.562;14.440;2022-10-04T03:30:10;94288.00;;;16.00
41593;BMP180;28026;48.562;14.440;2022-10-04T03:32:43;94291.00;;;16.00
41593;BMP180;28026;48.562;14.440;2022-10-04T03:35:32;94286.00;;;16.10
41593;BMP180;28026;48.562;14.440;2022-10-04T03:38:10;94289.00;;;16.10
41593;BMP180;28026;48.562;14.440;2022-10-04T03:40:50;94292.00;;;16.10
41593;BMP180;28026;48.562;14.440;2022-10-04T03:43:32;94296.00;;;16.10
41593;BMP180;28026;48.562;14.440;2022-10-04T03:46:08;94298.00;;;16.20
41593;BMP180;28026;48.562;14.440;2022-10-04T03:48:52;94293.00;;;16.20
41593;BMP180;28026;48.562;14.440;2022-10-04T03:51:26;94304.00;;;16.20
41593;BMP180;28026;48.562;14.440;2022-10-04T03:54:00;94296.00;;;16.20
41593;BMP180;28026;48.562;14.440;2022-10-04T03:56:35;94304.00;;;16.30
41593;BMP180;28026;48.562;14.440;2022-10-04T03:59:07;94308.00;;;16.30
41593;BMP180;28026;48.562;14.440;2022-10-04T04:02:12;94306.00;;;16.30
41593;BMP180;28026;48.562;14.440;2022-10-04T04:05:30;94298.00;;;16.30
41593;BMP180;28026;48.562;14.440;2022-10-04T04:08:16;94299.00;;;16.30
41593;BMP180;28026;48.562;14.440;2022-10-04T04:10:54;94298.00;;;16.40
41593;BMP180;28026;48.562;14.440;2022-10-04T04:16:38;94300.00;;;16.40
41593;BMP180;28026;48.562;14.440;2022-10-04T04:19:17;94303.00;;;16.40
41593;BMP180;28026;48.562;14.440;2022-10-04T04:21:54;94300.00;;;16.40
41593;BMP180;28026;48.562;14.440;2022-10-04T04:24:29;94294.00;;;16.40
41593;BMP180;28026;48.562;14.440;2022-10-04T04:27:03;94301.00;;;16.40
41593;BMP180;28026;48.562;14.440;2022-10-04T04:29:50;94290.00;;;16.40
41593;BMP180;28026;48.562;14.440;2022-10-04T04:32:38;94295.00;;;16.40
41593;BMP180;28026;48.562;14.440;2022-10-04T04:35:31;94292.00;;;16.50
41593;BMP180;28026;48.562;14.440;2022-10-04T04:38:24;94289.00;;;16.40
41593;BMP180;28026;48.562;14.440;2022-10-04T04:40:55;94281.00;;;16.40
41593;BMP180;28026;48.562;14.440;2022-10-04T04:43:27;94282.00;;;16.40
41593;BMP180;28026;48.562;14.440;2022-10-04T04:45:58;94280.00;;;16.40
41593;BMP180;28026;48.562;14.440;2022-10-04T04:48:29;94284.00;;;16.40
41593;BMP180;28026;48.562;14.440;2022-10-04T04:51:01;94281.00;;;16.50
41593;BMP180;28026;48.562;14.440;2022-10-04T04:53:32;94285.00;;;16.50
41593;BMP180;28026;48.562;14.440;2022-10-04T04:56:04;94292.00;;;16.50
41593;BMP180;28026;48.562;14.440;2022-10-04T04:58:44;94283.00;;;16.50
41593;BMP180;28026;48.562;14.440;2022-10-04T05:01:34;94295.00;;;16.40
41593;BMP180;28026;48.562;14.440;2022-10-04T05:07:03;94295.00;;;16.40
41593;BMP180;28026;48.562;14.440;2022-10-04T05:09:37;94303.00;;;16.40
41593;BMP180;28026;48.562;14.440;2022-10-04T05:12:20;94297.00;;;16.40
41593;BMP180;28026;48.562;14.440;2022-10-04T05:14:55;94300.00;;;16.40
41593;BMP180;28026;48.562;14.440;2022-10-04T05:17:33;94300.00;;;16.40
41593;BMP180;28026;48.562;14.440;2022-10-04T05:20:05;94299.00;;;16.40
41593;BMP180;28026;48.562;14.440;2022-10-04T05:22:40;94298.00;;;16.40
41593;BMP180;28026;48.562;14.440;2022-10-04T05:25:30;94293.00;;;16.40
41593;BMP180;28026;48.562;14.440;2022-10-04T05:28:03;94291.00;;;16.40
41593;BMP180;28026;48.562;14.440;2022-10-04T05:33:51;94296.00;;;16.30
41593;BMP180;28026;48.562;14.440;2022-10-04T05:40:02;94309.00;;;16.20
41593;BMP180;28026;48.562;14.440;2022-10-04T05:42:45;94312.00;;;16.20
41593;BMP180;28026;48.562;14.440;2022-10-04T05:45:19;94313.00;;;16.30
41593;BMP180;28026;48.562;14.440;2022-10-04T05:47:56;94312.00;;;16.30
41593;BMP180;28026;48.562;14.440;2022-10-04T05:50:42;94321.00;;;16.30
41593;BMP180;28026;48.562;14.440;2022-10-04T05:53:30;94328.00;;;16.40
41593;BMP180;28026;48.562;14.440;2022-10-04T06:09:47;94335.00;;;16.60
41593;BMP180;28026;48.562;14.440;2022-10-04T06:18:55;94341.00;;;16.80
41593;BMP180;28026;48.562;14.440;2022-10-04T06:24:26;94332.00;;;16.60
41593;BMP180;28026;48.562;14.440;2022-10-04T06:30:03;94333.00;;;16.50
41593;BMP180;28026;48.562;14.440;2022-10-04T06:40:05;94353.00;;;16.80
41593;BMP180;28026;48.562;14.440;2022-10-04T06:49:29;94348.00;;;17.00
41593;BMP180;28026;48.562;14.440;2022-10-04T06:59:19;94351.00;;;17.20
41593;BMP180;28026;48.562;14.440;2022-10-04T07:02:11;94347.00;;;17.30
41593;BMP180;28026;48.562;14.440;2022-10-04T07:07:53;94346.00;;;17.40
41593;BMP180;28026;48.562;14.440;2022-10-04T07:10:49;94354.00;;;17.50
41593;BMP180;28026;48.562;14.440;2022-10-04T07:16:51;94358.00;;;17.70
41593;BMP180;28026;48.562;14.440;2022-10-04T07:19:41;94362.00;;;17.70
41593;BMP180;28026;48.562;14.440;2022-10-04T07:22:44;94366.00;;;17.90
41593;BMP180;28026;48.562;14.440;2022-10-04T07:25:33;94368.00;;;18.00
41593;BMP180;28026;48.562;14.440;2022-10-04T07:28:18;94360.00;;;18.10
41593;BMP180;28026;48.562;14.440;2022-10-04T07:31:40;94363.00;;;18.20
41593;BMP180;28026;48.562;14.440;2022-10-04T07:34:24;94370.00;;;18.40
41593;BMP180;28026;48.562;14.440;2022-10-04T07:37:06;94371.00;;;18.50
41593;BMP180;28026;48.562;14.440;2022-10-04T07:45:34;94366.00;;;18.90
41593;BMP180;28026;48.562;14.440;2022-10-04T07:48:15;94371.00;;;19.00
41593;BMP180;28026;48.562;14.440;2022-10-04T07:51:27;94372.00;;;19.00
41593;BMP180;28026;48.562;14.440;2022-10-04T07:54:34;94371.00;;;19.10
41593;BMP180;28026;48.562;14.440;2022-10-04T08:00:22;94378.00;;;19.30
41593;BMP180;28026;48.562;14.440;2022-10-04T08:03:44;94380.00;;;19.40
41593;BMP180;28026;48.562;14.440;2022-10-04T08:06:55;94380.00;;;19.40
41593;BMP180;28026;48.562;14.440;2022-10-04T08:09:47;94381.00;;;19.60
41593;BMP180;28026;48.562;14.440;2022-10-04T08:12:50;94386.00;;;19.80
41593;BMP180;28026;48.562;14.440;2022-10-04T08:15:37;94390.00;;;20.00
41593;BMP180;28026;48.562;14.440;2022-10-04T08:22:01;94398.00;;;20.20
41593;BMP180;28026;48.562;14.440;2022-10-04T08:25:20;94399.00;;;20.20
41593;BMP180;28026;48.562;14.440;2022-10-04T08:28:02;94401.00;;;20.30
41593;BMP180;28026;48.562;14.440;2022-10-04T08:32:04;94390.00;;;20.50
41593;BMP180;28026;48.562;14.440;2022-10-04T08:41:20;94400.00;;;20.70
41593;BMP180;28026;48.562;14.440;2022-10-04T08:44:32;94404.00;;;20.60
41593;BMP180;28026;48.562;14.440;2022-10-04T08:54:53;94395.00;;;20.90
41593;BMP180;28026;48.562;14.440;2022-10-04T09:14:47;94394.00;;;21.50
41593;BMP180;28026;48.562;14.440;2022-10-04T09:27:41;94388.00;;;22.40
41593;BMP180;28026;48.562;14.440;2022-10-04T09:48:27;94392.00;;;22.40
41593;BMP180;28026;48.562;14.440;2022-10-04T09:55:08;94402.00;;;22.60
41593;BMP180;28026;48.562;14.440;2022-10-04T10:01:38;94399.00;;;22.50
41593;BMP180;28026;48.562;14.440;2022-10-04T10:04:46;94390.00;;;22.30
41593;BMP180;28026;48.562;14.440;2022-10-04T10:07:57;94393.00;;;22.20
41593;BMP180;28026;48.562;14.440;2022-10-04T10:18:08;94394.00;;;22.30
41593;BMP180;28026;48.562;14.440;2022-10-04T10:21:11;94393.00;;;22.80
41593;BMP180;28026;48.562;14.440;2022-10-04T10:24:20;94391.00;;;23.10
41593;BMP180;28026;48.562;14.440;2022-10-04T10:27:48;94400.00;;;23.40
41593;BMP180;28026;48.562;14.440;2022-10-04T10:35:12;94405.00;;;23.50
41593;BMP180;28026;48.562;14.440;2022-10-04T10:41:51;94414.00;;;23.20
41593;BMP180;28026;48.562;14.440;2022-10-04T10:48:05;94416.00;;;23.20
41593;BMP180;28026;48.562;14.440;2022-10-04T11:13:27;94420.00;;;22.40
41593;BMP180;28026;48.562;14.440;2022-10-04T11:39:15;94421.00;;;23.10
41593;BMP180;28026;48.562;14.440;2022-10-04T11:41:51;94420.00;;;23.20
41593;BMP180;28026;48.562;14.440;2022-10-04T11:51:41;94419.00;;;23.10
41593;BMP180;28026;48.562;14.440;2022-10-04T11:58:38;94411.00;;;23.20
41593;BMP180;28026;48.562;14.440;2022-10-04T12:50:01;94392.00;;;24.90
41593;BMP180;28026;48.562;14.440;2022-10-04T13:05:09;94382.00;;;25.70
41593;BMP180;28026;48.562;14.440;2022-10-04T13:08:21;94381.00;;;26.10
41593;BMP180;28026;48.562;14.440;2022-10-04T13:11:55;94379.00;;;26.30
41593;BMP180;28026;48.562;14.440;2022-10-04T13:15:02;94373.00;;;26.70
41593;BMP180;28026;48.562;14.440;2022-10-04T13:21:16;94389.00;;;26.30
41593;BMP180;28026;48.562;14.440;2022-10-04T13:36:43;94388.00;;;26.20
41593;BMP180;28026;48.562;14.440;2022-10-04T13:47:04;94385.00;;;26.80
41593;BMP180;28026;48.562;14.440;2022-10-04T13:50:20;94385.00;;;26.80
41593;BMP180;28026;48.562;14.440;2022-10-04T13:59:50;94399.00;;;27.30
41593;BMP180;28026;48.562;14.440;2022-10-04T14:06:04;94390.00;;;27.30
41593;BMP180;28026;48.562;14.440;2022-10-04T14:09:01;94391.00;;;27.30
41593;BMP180;28026;48.562;14.440;2022-10-04T14:18:50;94405.00;;;27.60
41593;BMP180;28026;48.562;14.440;2022-10-04T14:30:23;94393.00;;;27.40
41593;BMP180;28026;48.562;14.440;2022-10-04T14:37:27;94398.00;;;27.00
41593;BMP180;28026;48.562;14.440;2022-10-04T14:47:04;94398.00;;;26.80
41593;BMP180;28026;48.562;14.440;2022-10-04T14:53:01;94392.00;;;26.60
41593;BMP180;28026;48.562;14.440;2022-10-04T14:56:19;94400.00;;;26.50
41593;BMP180;28026;48.562;14.440;2022-10-04T15:16:35;94408.00;;;25.90
41593;BMP180;28026;48.562;14.440;2022-10-04T15:24:54;94407.00;;;25.30
41593;BMP180;28026;48.562;14.440;2022-10-04T15:43:21;94413.00;;;24.60
41593;BMP180;28026;48.562;14.440;2022-10-04T15:46:37;94413.00;;;24.50
41593;BMP180;28026;48.562;14.440;2022-10-04T15:49:47;94404.00;;;24.30
41593;BMP180;28026;48.562;14.440;2022-10-04T16:12:28;94397.00;;;23.50
41593;BMP180;28026;48.562;14.440;2022-10-04T16:21:48;94401.00;;;23.30
41593;BMP180;28026;48.562;14.440;2022-10-04T16:24:37;94404.00;;;23.20
41593;BMP180;28026;48.562;14.440;2022-10-04T16:28:23;94406.00;;;23.20
41593;BMP180;28026;48.562;14.440;2022-10-04T16:31:21;94410.00;;;23.10
41593;BMP180;28026;48.562;14.440;2022-10-04T16:42:46;94410.00;;;22.90
41593;BMP180;28026;48.562;14.440;2022-10-04T16:49:03;94410.00;;;22.70
41593;BMP180;28026;48.562;14.440;2022-10-04T17:01:46;94422.00;;;22.40
41593;BMP180;28026;48.562;14.440;2022-10-04T17:17:44;94436.00;;;22.00
41593;BMP180;28026;48.562;14.440;2022-10-04T17:23:48;94439.00;;;21.90
41593;BMP180;28026;48.562;14.440;2022-10-04T17:27:17;94427.00;;;21.80
41593;BMP180;28026;48.562;14.440;2022-10-04T17:30:20;94432.00;;;21.70
41593;BMP180;28026;48.562;14.440;2022-10-04T17:33:54;94432.00;;;21.70
41593;BMP180;28026;48.562;14.440;2022-10-04T17:36:49;94434.00;;;21.70
41593;BMP180;28026;48.562;14.440;2022-10-04T17:42:29;94438.00;;;21.50
41593;BMP180;28026;48.562;14.440;2022-10-04T17:45:34;94438.00;;;21.40
41593;BMP180;28026;48.562;14.440;2022-10-04T17:48:26;94445.00;;;21.30
41593;BMP180;28026;48.562;14.440;2022-10-04T17:54:47;94428.00;;;21.10
41593;BMP180;28026;48.562;14.440;2022-10-04T17:58:01;94434.00;;;21.10
41593;BMP180;28026;48.562;14.440;2022-10-04T18:01:03;94438.00;;;21.10
41593;BMP180;28026;48.562;14.440;2022-10-04T18:06:40;94425.00;;;21.00
41593;BMP180;28026;48.562;14.440;2022-10-04T18:09:47;94433.00;;;20.90
41593;BMP180;28026;48.562;14.440;2022-10-04T18:12:39;94435.00;;;20.80
41593;BMP180;28026;48.562;14.440;2022-10-04T18:18:41;94442.00;;;20.70
41593;BMP180;28026;48.562;14.440;2022-10-04T18:21:29;94441.00;;;20.70
41593;BMP180;28026;48.562;14.440;2022-10-04T18:24:19;94451.00;;;20.60
41593;BMP180;28026;48.562;14.440;2022-10-04T18:27:06;94445.00;;;20.50
41593;BMP180;28026;48.562;14.440;2022-10-04T18:30:16;94461.00;;;20.40
41593;BMP180;28026;48.562;14.440;2022-10-04T18:32:54;94459.00;;;20.20
41593;BMP180;28026;48.562;14.440;2022-10-04T18:35:32;94454.00;;;20.20
41593;BMP180;28026;48.562;14.440;2022-10-04T18:40:41;94460.00;;;20.20
41593;BMP180;28026;48.562;14.440;2022-10-04T18:43:50;94456.00;;;20.20
41593;BMP180;28026;48.562;14.440;2022-10-04T18:46:40;94465.00;;;20.10
41593;BMP180;28026;48.562;14.440;2022-10-04T18:49:45;94460.00;;;20.10
41593;BMP180;28026;48.562;14.440;2022-10-04T19:08:29;94434.00;;;19.80
41593;BMP180;28026;48.562;14.440;2022-10-04T19:30:21;94419.00;;;19.40
41593;BMP180;28026;48.562;14.440;2022-10-04T19:42:18;94432.00;;;19.30
41593;BMP180;28026;48.562;14.440;2022-10-04T19:48:20;94429.00;;;19.20
41593;BMP180;28026;48.562;14.440;2022-10-04T19:51:15;94444.00;;;19.20
41593;BMP180;28026;48.562;14.440;2022-10-04T19:54:12;94446.00;;;19.10
41593;BMP180;28026;48.562;14.440;2022-10-04T19:56:52;94449.00;;;19.10
41593;BMP180;28026;48.562;14.440;2022-10-04T19:59:38;94451.00;;;19.00
41593;BMP180;28026;48.562;14.440;2022-10-04T20:02:12;94452.00;;;19.00
41593;BMP180;28026;48.562;14.440;2022-10-04T20:04:44;94448.00;;;19.00
41593;BMP180;28026;48.562;14.440;2022-10-04T20:07:26;94452.00;;;19.00
41593;BMP180;28026;48.562;14.440;2022-10-04T20:10:31;94466.00;;;19.00
41593;BMP180;28026;48.562;14.440;2022-10-04T20:15:57;94456.00;;;18.90
41593;BMP180;28026;48.562;14.440;2022-10-04T20:21:08;94462.00;;;18.80
41593;BMP180;28026;48.562;14.440;2022-10-04T20:23:53;94459.00;;;18.80
41593;BMP180;28026;48.562;14.440;2022-10-04T20:26:43;94469.00;;;18.80
41593;BMP180;28026;48.562;14.440;2022-10-04T20:35:09;94479.00;;;18.70
41593;BMP180;28026;48.562;14.440;2022-10-04T20:45:51;94483.00;;;18.60
41593;BMP180;28026;48.562;14.440;2022-10-04T20:48:27;94483.00;;;18.60
41593;BMP180;28026;48.562;14.440;2022-10-04T20:51:09;94492.00;;;18.60
41593;BMP180;28026;48.562;14.440;2022-10-04T20:53:44;94495.00;;;18.50
41593;BMP180;28026;48.562;14.440;2022-10-04T20:56:28;94497.00;;;18.50
41593;BMP180;28026;48.562;14.440;2022-10-04T20:59:02;94485.00;;;18.50
41593;BMP180;28026;48.562;14.440;2022-10-04T21:01:35;94493.00;;;18.40
41593;BMP180;28026;48.562;14.440;2022-10-04T21:07:04;94485.00;;;18.40
41593;BMP180;28026;48.562;14.440;2022-10-04T21:09:38;94481.00;;;18.40
41593;BMP180;28026;48.562;14.440;2022-10-04T21:20:49;94484.00;;;18.20
41593;BMP180;28026;48.562;14.440;2022-10-04T21:23:31;94482.00;;;18.20
41593;BMP180;28026;48.562;14.440;2022-10-04T21:26:21;94479.00;;;18.10
41593;BMP180;28026;48.562;14.440;2022-10-04T21:28:55;94481.00;;;18.10
41593;BMP180;28026;48.562;14.440;2022-10-04T21:31:26;94470.00;;;18.10
41593;BMP180;28026;48.562;14.440;2022-10-04T21:33:58;94477.00;;;18.10
41593;BMP180;28026;48.562;14.440;2022-10-04T21:36:28;94487.00;;;18.00
41593;BMP180;28026;48.562;14.440;2022-10-04T21:38:59;94483.00;;;18.00
41593;BMP180;28026;48.562;14.440;2022-10-04T21:41:30;94485.00;;;18.00
41593;BMP180;28026;48.562;14.440;2022-10-04T21:44:01;94476.00;;;18.00
41593;BMP180;28026;48.562;14.440;2022-10-04T21:46:33;94482.00;;;17.90
41593;BMP180;28026;48.562;14.440;2022-10-04T21:49:05;94483.00;;;17.90
41593;BMP180;28026;48.562;14.440;2022-10-04T21:51:36;94490.00;;;17.80
41593;BMP180;28026;48.562;14.440;2022-10-04T21:54:09;94480.00;;;17.80
41593;BMP180;28026;48.562;14.440;2022-10-04T21:56:40;94475.00;;;17.80
41593;BMP180;28026;48.562;14.440;2022-10-04T21:59:11;94475.00;;;17.80
41593;BMP180;28026;48.562;14.440;2022-10-04T22:01:42;94476.00;;;17.70
41593;BMP180;28026;48.562;14.440;2022-10-04T22:04:13;94473.00;;;17.70
41593;BMP180;28026;48.562;14.440;2022-10-04T22:06:44;94473.00;;;17.70
41593;BMP180;28026;48.562;14.440;2022-10-04T22:09:15;94473.00;;;17.70
41593;BMP180;28026;48.562;14.440;2022-10-04T22:11:46;94472.00;;;17.60
41593;BMP180;28026;48.562;14.440;2022-10-04T22:14:17;94466.00;;;17.60
41593;BMP180;28026;48.562;14.440;2022-10-04T22:16:48;94464.00;;;17.60
41593;BMP180;28026;48.562;14.440;2022-10-04T22:19:19;94477.00;;;17.60
41593;BMP180;28026;48.562;14.440;2022-10-04T22:21:49;94480.00;;;17.60
41593;BMP180;28026;48.562;14.440;2022-10-04T22:24:21;94481.00;;;17.50
41593;BMP180;28026;48.562;14.440;2022-10-04T22:26:52;94473.00;;;17.50
41593;BMP180;28026;48.562;14.440;2022-10-04T22:29:23;94476.00;;;17.50
41593;BMP180;28026;48.562;14.440;2022-10-04T22:31:55;94473.00;;;17.40
41593;BMP180;28026;48.562;14.440;2022-10-04T22:34:29;94477.00;;;17.40
41593;BMP180;28026;48.562;14.440;2022-10-04T22:37:02;94482.00;;;17.40
41593;BMP180;28026;48.562;14.440;2022-10-04T22:39:35;94476.00;;;17.30
41593;BMP180;28026;48.562;14.440;2022-10-04T22:42:12;94485.00;;;17.30
41593;BMP180;28026;48.562;14.440;2022-10-04T22:44:44;94490.00;;;17.30
41593;BMP180;28026;48.562;14.440;2022-10-04T22:47:15;94485.00;;;17.30
41593;BMP180;28026;48.562;14.440;2022-10-04T22:49:50;94486.00;;;17.30
41593;BMP180;28026;48.562;14.440;2022-10-04T22:52:24;94487.00;;;17.30
41593;BMP180;28026;48.562;14.440;2022-10-04T22:55:00;94498.00;;;17.20
41593;BMP180;28026;48.562;14.440;2022-10-04T22:57:31;94489.00;;;17.20
41593;BMP180;28026;48.562;14.440;2022-10-04T23:00:04;94489.00;;;17.10
41593;BMP180;28026;48.562;14.440;2022-10-04T23:02:35;94487.00;;;17.10
41593;BMP180;28026;48.562;14.440;2022-10-04T23:05:18;94483.00;;;17.10
41593;BMP180;28026;48.562;14.440;2022-10-04T23:07:49;94483.00;;;17.00
41593;BMP180;28026;48.562;14.440;2022-10-04T23:10:20;94502.00;;;17.00
41593;BMP180;28026;48.562;14.440;2022-10-04T23:12:51;94501.00;;;17.00
41593;BMP180;28026;48.562;14.440;2022-10-04T23:15:22;94499.00;;;17.00
41593;BMP180;28026;48.562;14.440;2022-10-04T23:17:54;94499.00;;;17.00
41593;BMP180;28026;48.562;14.440;2022-10-04T23:20:28;94497.00;;;17.00
41593;BMP180;28026;48.562;14.440;2022-10-04T23:22:59;94503.00;;;17.00
41593;BMP180;28026;48.562;14.440;2022-10-04T23:25:30;94511.00;;;17.00
41593;BMP180;28026;48.562;14.440;2022-10-04T23:28:15;94511.00;;;17.00
41593;BMP180;28026;48.562;14.440;2022-10-04T23:31:04;94514.00;;;16.90
41593;BMP180;28026;48.562;14.440;2022-10-04T23:33:44;94514.00;;;16.90
41593;BMP180;28026;48.562;14.440;2022-10-04T23:36:15;94511.00;;;16.90
41593;BMP180;28026;48.562;14.440;2022-10-04T23:38:58;94510.00;;;16.90
41593;BMP180;28026;48.562;14.440;2022-10-04T23:41:30;94504.00;;;16.80
41593;BMP180;28026;48.562;14.440;2022-10-04T23:44:01;94501.00;;;16.70
41593;BMP180;28026;48.562;14.440;2022-10-04T23:46:32;94503.00;;;16.60
41593;BMP180;28026;48.562;14.440;2022-10-04T23:49:03;94501.00;;;16.60
41593;BMP180;28026;48.562;14.440;2022-10-04T23:51:34;94509.00;;;16.60
41593;BMP180;28026;48.562;14.440;2022-10-04T23:54:11;94506.00;;;16.70
41593;BMP180;28026;48.562;14.440;2022-10-04T23:56:45;94501.00;;;16.70
41593;BMP180;28026;48.562;14.440;2022-10-04T23:59:21;94500.00;;;16.70
